Time;durP1;ratioP1;P1;durP2;ratioP2;P2;SDS_P1;SDS_P2;PMS_P1;PMS_P2;Temp;Humidity;BMP_temperature;BMP_pressure;BME280_temperature;BME280_humidity;BME280_pressure;Samples;Min_cycle;Max_cycle;Signal;HPM_P1;HPM_P2
2022/06/11 00:01:35;;;;;;;7.73;4.80;;;15.70;99.90;;;;;;4921853;29;20226;-75
2022/06/11 00:04:06;;;;;;;8.60;5.00;;;15.70;99.90;;;;;;4918851;29;20210;-75
2022/06/11 00:06:36;;;;;;;7.00;4.57;;;15.70;99.90;;;;;;4921417;29;20679;-75
2022/06/11 00:09:05;;;;;;;7.23;4.80;;;15.70;99.90;;;;;;4915559;29;20199;-75
2022/06/11 00:11:32;;;;;;;9.23;4.83;;;15.60;99.90;;;;;;4927370;29;20229;-75
2022/06/11 00:13:59;;;;;;;8.40;4.57;;;15.40;99.90;;;;;;4927876;29;20679;-75
2022/06/11 00:16:26;;;;;;;6.30;5.00;;;15.30;99.90;;;;;;4930849;29;20216;-75
2022/06/11 00:18:56;;;;;;;9.37;5.40;;;15.20;99.90;;;;;;4927055;29;20218;-75
2022/06/11 00:21:25;;;;;;;6.10;4.80;;;15.20;99.90;;;;;;4927608;29;20223;-75
2022/06/11 00:23:52;;;;;;;6.23;4.53;;;15.00;99.90;;;;;;4916793;29;20218;-75
2022/06/11 00:26:20;;;;;;;7.27;4.93;;;14.90;99.90;;;;;;4919959;29;20211;-75
2022/06/11 00:28:47;;;;;;;8.30;4.80;;;14.80;99.90;;;;;;4918758;29;20195;-73
2022/06/11 00:31:15;;;;;;;11.27;5.30;;;14.90;99.90;;;;;;4914662;29;20231;-75
2022/06/11 00:33:42;;;;;;;7.67;4.70;;;14.80;99.90;;;;;;4921084;29;20576;-75
2022/06/11 00:36:10;;;;;;;7.00;4.87;;;14.90;99.90;;;;;;4922635;29;20195;-75
2022/06/11 00:38:38;;;;;;;10.43;5.00;;;14.90;99.90;;;;;;4919197;28;20227;-73
2022/06/11 00:41:07;;;;;;;7.57;5.07;;;14.90;99.90;;;;;;4944467;28;20721;-75
2022/06/11 00:43:37;;;;;;;5.67;4.63;;;14.90;99.90;;;;;;4921114;29;20233;-75
2022/06/11 00:46:39;;;;;;;8.03;4.87;;;15.00;99.90;;;;;;4921159;29;20270;-75
2022/06/11 00:49:19;;;;;;;7.03;4.50;;;15.00;99.90;;;;;;4918113;29;20320;-75
2022/06/11 00:51:47;;;;;;;8.20;4.60;;;14.90;99.90;;;;;;4920966;29;20230;-75
2022/06/11 00:54:20;;;;;;;7.00;4.30;;;14.90;99.90;;;;;;4916120;29;20199;-75
2022/06/11 00:56:52;;;;;;;5.83;3.97;;;14.80;99.90;;;;;;4918936;29;20192;-75
2022/06/11 00:59:29;;;;;;;7.03;4.40;;;14.70;99.90;;;;;;4917550;29;20196;-75
2022/06/11 01:01:56;;;;;;;8.57;4.40;;;14.70;99.90;;;;;;4921251;29;20594;-75
2022/06/11 01:04:56;;;;;;;8.60;4.43;;;14.60;99.90;;;;;;4921750;29;20233;-75
2022/06/11 01:08:02;;;;;;;5.10;4.20;;;14.80;99.90;;;;;;4912882;29;20210;-75
2022/06/11 01:10:48;;;;;;;6.90;4.50;;;14.70;99.90;;;;;;4917663;29;20226;-75
2022/06/11 01:13:32;;;;;;;8.07;4.67;;;14.50;99.90;;;;;;4921446;29;20203;-74
2022/06/11 01:16:16;;;;;;;7.03;4.33;;;14.60;99.90;;;;;;4917118;29;20200;-75
2022/06/11 01:18:52;;;;;;;7.50;4.60;;;14.50;99.90;;;;;;4920801;29;20202;-75
2022/06/11 01:21:27;;;;;;;8.50;4.50;;;14.50;99.90;;;;;;4917927;29;20238;-74
2022/06/11 01:24:12;;;;;;;6.33;4.40;;;14.50;99.90;;;;;;4923920;29;20213;-75
2022/06/11 01:27:24;;;;;;;5.50;4.03;;;14.50;99.90;;;;;;4919575;29;20200;-75
2022/06/11 01:29:57;;;;;;;7.10;4.13;;;14.40;99.90;;;;;;4920684;29;20415;-75
2022/06/11 01:32:49;;;;;;;7.67;4.53;;;14.40;99.90;;;;;;4919117;29;20767;-75
2022/06/11 01:35:28;;;;;;;5.73;4.27;;;14.30;99.90;;;;;;4930430;29;20214;-75
2022/06/11 01:38:04;;;;;;;7.00;4.07;;;14.40;99.90;;;;;;4919949;29;20257;-75
2022/06/11 01:40:44;;;;;;;7.97;4.13;;;14.40;99.90;;;;;;4922436;29;20269;-74
2022/06/11 01:43:20;;;;;;;9.80;4.57;;;14.30;99.90;;;;;;4921580;29;20209;-73
2022/06/11 01:45:48;;;;;;;8.67;4.50;;;14.30;99.90;;;;;;4920605;29;20199;-75
2022/06/11 01:48:19;;;;;;;8.13;4.30;;;14.30;99.90;;;;;;4921037;29;20206;-74
2022/06/11 01:50:58;;;;;;;5.67;4.47;;;14.40;99.90;;;;;;4922655;29;20265;-75
2022/06/11 01:53:54;;;;;;;7.00;4.37;;;14.60;99.90;;;;;;4953592;28;20209;-75
2022/06/11 01:56:45;;;;;;;9.63;5.20;;;14.50;99.90;;;;;;4918289;29;20204;-75
2022/06/11 01:59:35;;;;;;;9.87;5.07;;;14.40;99.90;;;;;;4913245;29;20203;-76
2022/06/11 02:02:40;;;;;;;6.77;5.00;;;14.40;99.90;;;;;;4926367;29;20223;-74
2022/06/11 02:05:23;;;;;;;7.23;4.87;;;14.40;99.90;;;;;;4922152;29;20203;-75
2022/06/11 02:08:18;;;;;;;6.17;5.10;;;14.40;99.90;;;;;;4926697;29;20211;-74
2022/06/11 02:11:12;;;;;;;7.23;5.07;;;14.30;99.90;;;;;;4921916;29;20223;-76
2022/06/11 02:13:44;;;;;;;6.73;4.70;;;14.30;99.90;;;;;;4923888;29;22151;-74
2022/06/11 02:16:39;;;;;;;7.00;4.40;;;14.40;99.90;;;;;;4922467;29;20206;-75
2022/06/11 02:19:11;;;;;;;10.47;4.43;;;14.50;99.90;;;;;;4932906;29;20254;-75
2022/06/11 02:21:43;;;;;;;8.30;4.70;;;14.70;99.90;;;;;;4927837;29;20250;-73
2022/06/11 02:24:25;;;;;;;8.50;4.80;;;14.80;99.90;;;;;;4930593;29;20203;-75
2022/06/11 02:26:56;;;;;;;6.30;4.30;;;14.90;99.90;;;;;;4919551;29;20203;-75
2022/06/11 02:29:24;;;;;;;8.07;5.00;;;14.90;99.90;;;;;;4931170;29;20211;-75
2022/06/11 02:31:56;;;;;;;5.03;3.97;;;14.80;99.90;;;;;;4927125;29;20227;-75
2022/06/11 02:34:25;;;;;;;6.63;4.17;;;14.90;99.90;;;;;;4929833;29;20198;-75
2022/06/11 02:36:56;;;;;;;10.27;4.17;;;14.90;99.90;;;;;;4929475;29;20202;-75
2022/06/11 02:39:24;;;;;;;6.03;4.47;;;15.00;99.90;;;;;;4934232;29;20195;-75
2022/06/11 02:41:52;;;;;;;7.87;4.50;;;15.20;99.90;;;;;;4938283;29;20219;-75
2022/06/11 02:44:19;;;;;;;5.17;3.73;;;15.30;99.90;;;;;;4935723;29;20289;-75
2022/06/11 02:46:45;;;;;;;9.93;4.63;;;15.30;99.90;;;;;;4931667;28;20203;-75
2022/06/11 02:49:15;;;;;;;6.93;4.03;;;15.40;99.90;;;;;;4929545;29;20335;-75
2022/06/11 02:51:43;;;;;;;7.53;4.00;;;15.40;99.90;;;;;;4924278;29;20235;-75
2022/06/11 02:54:10;;;;;;;6.13;3.90;;;15.30;99.90;;;;;;4931057;29;20225;-76
2022/06/11 02:56:37;;;;;;;6.60;3.80;;;15.40;99.90;;;;;;4934468;29;20222;-75
2022/06/11 02:59:04;;;;;;;8.47;3.93;;;15.40;99.90;;;;;;4932657;29;20685;-74
2022/06/11 03:01:33;;;;;;;6.80;4.30;;;15.40;99.90;;;;;;4926749;29;20218;-75
2022/06/11 03:04:01;;;;;;;10.80;4.50;;;15.40;99.90;;;;;;4933459;29;20199;-74
2022/06/11 03:06:29;;;;;;;6.60;3.67;;;15.50;99.90;;;;;;4930790;29;20199;-74
2022/06/11 03:08:57;;;;;;;7.17;3.77;;;15.40;99.90;;;;;;4930049;29;20924;-75
2022/06/11 03:11:24;;;;;;;5.83;3.50;;;15.40;99.90;;;;;;4935239;29;20469;-74
2022/06/11 03:13:51;;;;;;;4.90;3.43;;;15.40;99.90;;;;;;4935990;29;20198;-75
2022/06/11 03:16:18;;;;;;;5.90;3.70;;;15.40;99.90;;;;;;4929765;29;20206;-75
2022/06/11 03:18:45;;;;;;;4.77;3.33;;;15.40;99.90;;;;;;4931255;29;20546;-75
2022/06/11 03:21:12;;;;;;;6.30;4.03;;;15.50;99.90;;;;;;4931894;29;20709;-74
2022/06/11 03:23:39;;;;;;;5.33;3.67;;;15.40;99.90;;;;;;4931829;29;20218;-75
2022/06/11 03:26:07;;;;;;;7.40;3.70;;;15.40;99.90;;;;;;4929716;29;20199;-75
2022/06/11 03:28:34;;;;;;;4.63;3.50;;;15.40;99.90;;;;;;4927243;29;20233;-72
2022/06/11 03:31:06;;;;;;;7.23;3.90;;;15.40;99.90;;;;;;4925174;29;20706;-75
2022/06/11 03:33:35;;;;;;;8.10;3.87;;;15.50;99.90;;;;;;4930607;29;20290;-75
2022/06/11 03:36:09;;;;;;;7.33;3.80;;;15.40;99.90;;;;;;4933505;29;20203;-74
2022/06/11 03:38:38;;;;;;;6.20;3.77;;;15.40;99.90;;;;;;4939895;29;20198;-74
2022/06/11 03:41:05;;;;;;;5.93;3.23;;;15.40;99.90;;;;;;4938127;29;20602;-75
2022/06/11 03:43:32;;;;;;;5.00;3.40;;;15.50;99.90;;;;;;4931363;29;20207;-75
2022/06/11 03:46:00;;;;;;;3.67;3.13;;;15.50;99.90;;;;;;4925887;29;20210;-75
2022/06/11 03:48:30;;;;;;;6.47;4.03;;;15.50;99.90;;;;;;4931274;29;20207;-74
2022/06/11 03:50:59;;;;;;;3.90;3.40;;;15.50;99.90;;;;;;4939423;29;20223;-75
2022/06/11 03:53:28;;;;;;;5.37;3.80;;;15.60;99.90;;;;;;4930557;29;20198;-75
2022/06/11 03:55:55;;;;;;;5.53;3.30;;;15.70;99.90;;;;;;4932360;29;20198;-75
2022/06/11 03:58:22;;;;;;;3.83;3.30;;;15.70;99.90;;;;;;4932386;29;20199;-75
2022/06/11 04:03:36;;;;;;;6.30;4.10;;;15.60;99.90;;;;;;4927008;29;20238;-75
2022/06/11 04:06:04;;;;;;;6.80;4.10;;;15.70;99.90;;;;;;4933119;29;20199;-75
2022/06/11 04:08:32;;;;;;;6.93;4.20;;;15.70;99.90;;;;;;4929263;29;20696;-74
2022/06/11 04:11:00;;;;;;;5.70;3.93;;;15.60;99.90;;;;;;4931492;29;20215;-75
2022/06/11 04:13:29;;;;;;;4.97;4.00;;;15.50;99.90;;;;;;4927773;29;20210;-75
2022/06/11 04:15:58;;;;;;;7.93;4.57;;;15.50;99.90;;;;;;4928836;29;20202;-75
2022/06/11 04:18:25;;;;;;;7.77;4.77;;;15.60;99.90;;;;;;4929173;29;20294;-75
2022/06/11 04:20:53;;;;;;;4.40;3.77;;;15.60;99.90;;;;;;4938986;29;20216;-74
2022/06/11 04:23:19;;;;;;;9.63;4.30;;;15.50;99.90;;;;;;4923920;29;20210;-71
2022/06/11 04:25:46;;;;;;;8.00;4.53;;;15.40;99.90;;;;;;4913471;29;20199;-74
2022/06/11 04:28:13;;;;;;;6.50;4.17;;;15.50;99.90;;;;;;4926284;29;20198;-75
2022/06/11 04:30:40;;;;;;;8.87;4.90;;;15.50;99.90;;;;;;4914238;28;20234;-75
2022/06/11 04:33:07;;;;;;;8.00;4.77;;;15.60;99.90;;;;;;4918002;29;20224;-75
2022/06/11 04:35:34;;;;;;;7.23;4.43;;;15.60;99.90;;;;;;4918520;29;20202;-74
2022/06/11 04:38:01;;;;;;;6.63;4.43;;;15.80;99.90;;;;;;4948117;28;20582;-74
2022/06/11 04:40:29;;;;;;;7.67;4.30;;;15.90;99.90;;;;;;4924736;29;20223;-75
2022/06/11 04:42:55;;;;;;;4.30;3.57;;;15.80;99.90;;;;;;4921109;29;20282;-75
2022/06/11 04:45:22;;;;;;;5.87;4.53;;;15.70;99.90;;;;;;4926493;29;20207;-74
2022/06/11 04:47:49;;;;;;;6.50;4.67;;;15.80;99.90;;;;;;4918362;29;20195;-75
2022/06/11 04:50:17;;;;;;;7.17;4.43;;;15.90;99.90;;;;;;4924193;29;20282;-75
2022/06/11 04:52:44;;;;;;;9.83;4.60;;;15.80;99.90;;;;;;4916435;29;20222;-75
2022/06/11 04:55:11;;;;;;;9.47;4.90;;;16.00;99.90;;;;;;4922084;29;20199;-75
2022/06/11 04:57:38;;;;;;;5.80;4.23;;;16.00;99.90;;;;;;4920898;29;20214;-73
2022/06/11 05:00:06;;;;;;;7.20;4.57;;;16.00;99.90;;;;;;4921674;29;20690;-75
2022/06/11 05:02:33;;;;;;;8.60;4.60;;;16.10;99.90;;;;;;4920649;29;20210;-76
2022/06/11 05:05:01;;;;;;;7.47;4.73;;;16.20;99.90;;;;;;4923987;29;20203;-74
2022/06/11 05:07:27;;;;;;;7.53;4.70;;;16.40;99.90;;;;;;4920585;29;20199;-75
2022/06/11 05:09:54;;;;;;;8.50;4.63;;;16.40;99.90;;;;;;4926615;29;20691;-73
2022/06/11 05:12:21;;;;;;;10.03;4.60;;;16.50;99.90;;;;;;4925698;29;20241;-73
2022/06/11 05:14:48;;;;;;;7.27;4.10;;;16.60;99.90;;;;;;4925035;29;20557;-74
2022/06/11 05:17:14;;;;;;;5.60;4.10;;;16.70;99.90;;;;;;4924722;29;20218;-75
2022/06/11 05:19:41;;;;;;;6.23;4.03;;;16.80;99.90;;;;;;4917614;29;20203;-76
2022/06/11 05:22:08;;;;;;;7.33;4.80;;;16.80;99.90;;;;;;4918730;29;20224;-75
2022/06/11 05:24:35;;;;;;;5.67;3.50;;;16.90;99.90;;;;;;4920354;29;20207;-76
2022/06/11 05:27:08;;;;;;;8.07;3.43;;;17.10;99.90;;;;;;4923445;29;20203;-76
2022/06/11 05:29:48;;;;;;;6.33;3.53;;;17.30;99.90;;;;;;4925257;29;20206;-75
2022/06/11 05:32:18;;;;;;;5.97;3.70;;;17.60;99.90;;;;;;4920347;29;20231;-75
2022/06/11 05:34:45;;;;;;;4.40;2.97;;;18.00;99.90;;;;;;4915618;29;20202;-75
2022/06/11 05:37:12;;;;;;;5.13;3.20;;;18.30;99.90;;;;;;4918173;29;20211;-75
2022/06/11 05:39:41;;;;;;;5.87;3.00;;;18.70;99.90;;;;;;4929321;29;20207;-75
2022/06/11 05:42:08;;;;;;;7.40;3.47;;;19.20;99.90;;;;;;4922890;29;20226;-75
2022/06/11 05:44:35;;;;;;;5.90;3.23;;;19.80;99.90;;;;;;4917956;28;20279;-76
2022/06/11 05:47:02;;;;;;;6.85;3.13;;;20.30;99.90;;;;;;4923877;29;20211;-75
2022/06/11 05:49:35;;;;;;;6.18;2.80;;;20.80;99.90;;;;;;4918334;29;20772;-75
2022/06/11 05:52:07;;;;;;;5.18;2.83;;;21.20;99.90;;;;;;4921372;29;20231;-75
2022/06/11 05:54:36;;;;;;;7.03;4.03;;;21.50;99.90;;;;;;4921694;29;20257;-75
2022/06/11 05:57:05;;;;;;;4.47;2.47;;;21.50;99.90;;;;;;4917791;29;20206;-76
2022/06/11 05:59:38;;;;;;;8.45;2.67;;;21.70;99.90;;;;;;4919363;29;20567;-75
2022/06/11 06:02:10;;;;;;;4.28;2.67;;;22.00;99.90;;;;;;4920013;29;20707;-75
2022/06/11 06:04:37;;;;;;;5.95;2.72;;;21.90;99.90;;;;;;4919755;29;20211;-73
2022/06/11 06:07:05;;;;;;;3.92;2.80;;;21.70;99.90;;;;;;4919606;29;20199;-75
2022/06/11 06:09:32;;;;;;;6.85;3.10;;;21.60;99.90;;;;;;4918941;29;20206;-76
2022/06/11 06:11:58;;;;;;;4.03;2.80;;;21.30;99.90;;;;;;4915033;29;20223;-75
2022/06/11 06:14:25;;;;;;;6.40;2.97;;;21.20;99.90;;;;;;4921810;29;20202;-75
2022/06/11 06:16:52;;;;;;;5.03;2.80;;;21.30;99.90;;;;;;4919929;29;20419;-74
2022/06/11 06:19:19;;;;;;;4.03;2.60;;;21.60;99.90;;;;;;4932218;29;20607;-75
2022/06/11 06:21:46;;;;;;;4.95;2.67;;;21.80;99.90;;;;;;4922761;29;20238;-74
2022/06/11 06:24:13;;;;;;;4.20;2.53;;;22.10;99.90;;;;;;4924683;29;20203;-75
2022/06/11 06:26:40;;;;;;;3.45;2.40;;;22.20;99.90;;;;;;4925029;29;20203;-75
2022/06/11 06:29:06;;;;;;;4.90;2.53;;;22.20;99.90;;;;;;4925012;29;20296;-75
2022/06/11 06:31:34;;;;;;;6.68;2.70;;;22.50;99.90;;;;;;4922273;29;20234;-75
2022/06/11 06:34:01;;;;;;;4.22;2.42;;;22.90;99.90;;;;;;4922293;29;20222;-75
2022/06/11 06:36:29;;;;;;;6.28;3.00;;;23.00;99.90;;;;;;4931265;29;20244;-75
2022/06/11 06:38:56;;;;;;;4.75;2.95;;;22.80;99.90;;;;;;4921714;29;20207;-75
2022/06/11 06:41:23;;;;;;;8.27;3.67;;;22.80;99.90;;;;;;4923255;29;20215;-76
2022/06/11 06:43:50;;;;;;;5.32;2.78;;;23.00;99.90;;;;;;4920512;29;20601;-73
2022/06/11 06:46:18;;;;;;;6.43;2.83;;;23.00;99.90;;;;;;4924491;29;20203;-75
2022/06/11 06:48:45;;;;;;;3.28;2.50;;;23.00;99.90;;;;;;4921817;29;20674;-73
2022/06/11 06:51:12;;;;;;;3.92;2.53;;;23.30;99.90;;;;;;4919338;29;20347;-75
2022/06/11 06:53:41;;;;;;;6.75;2.75;;;23.60;99.90;;;;;;4925052;29;20212;-75
2022/06/11 06:56:08;;;;;;;4.07;3.00;;;23.70;99.90;;;;;;4928168;29;20612;-75
2022/06/11 06:58:35;;;;;;;7.30;2.90;;;23.70;99.90;;;;;;4926143;28;20239;-76
2022/06/11 07:01:03;;;;;;;4.65;2.53;;;23.60;99.90;;;;;;4919223;29;20227;-75
2022/06/11 07:03:29;;;;;;;4.47;2.65;;;23.90;99.90;;;;;;4922777;29;20219;-75
2022/06/11 07:05:56;;;;;;;8.38;2.38;;;24.40;99.90;;;;;;4923963;29;20679;-75
2022/06/11 07:08:23;;;;;;;4.75;2.10;;;24.40;99.90;;;;;;4922386;29;20206;-75
2022/06/11 07:10:54;;;;;;;6.97;2.20;;;24.40;99.90;;;;;;4918141;29;20536;-75
2022/06/11 07:13:21;;;;;;;3.38;2.40;;;24.70;99.90;;;;;;4918552;29;20592;-76
2022/06/11 07:15:52;;;;;;;4.03;2.30;;;25.20;99.90;;;;;;4922269;29;20196;-75
2022/06/11 07:18:28;;;;;;;3.85;2.33;;;24.70;99.90;;;;;;4919439;29;20596;-75
2022/06/11 07:20:57;;;;;;;2.50;2.00;;;24.60;99.90;;;;;;4923211;29;20221;-75
2022/06/11 07:23:35;;;;;;;6.07;1.77;;;25.00;99.90;;;;;;4925875;29;20215;-73
2022/06/11 07:26:06;;;;;;;6.47;2.70;;;26.20;99.90;;;;;;4926444;29;20207;-75
2022/06/11 07:29:01;;;;;;;4.70;2.30;;;27.00;99.90;;;;;;4921972;29;20203;-76
2022/06/11 07:31:30;;;;;;;4.88;2.50;;;27.80;99.90;;;;;;4922229;29;20717;-75
2022/06/11 07:33:58;;;;;;;4.22;2.95;;;28.40;99.90;;;;;;4921888;29;20344;-75
2022/06/11 07:36:26;;;;;;;6.80;3.30;;;28.90;99.90;;;;;;4916151;29;20253;-76
2022/06/11 07:38:52;;;;;;;7.30;2.80;;;29.20;99.90;;;;;;4923337;29;20195;-76
2022/06/11 07:41:19;;;;;;;5.28;2.95;;;29.40;99.90;;;;;;4922288;29;20309;-75
2022/06/11 07:43:46;;;;;;;11.63;3.70;;;29.10;99.90;;;;;;4923222;29;20191;-75
2022/06/11 07:46:12;;;;;;;6.88;3.40;;;27.90;99.90;;;;;;4923690;29;20206;-75
2022/06/11 07:48:40;;;;;;;6.68;2.83;;;26.80;99.90;;;;;;4921771;29;20234;-75
2022/06/11 07:51:07;;;;;;;5.28;2.35;;;26.40;99.90;;;;;;4922993;29;20600;-73
2022/06/11 07:53:34;;;;;;;5.13;2.42;;;26.60;99.90;;;;;;4925775;29;20222;-75
2022/06/11 07:56:00;;;;;;;4.05;2.30;;;26.90;99.90;;;;;;4916096;29;20330;-75
2022/06/11 07:58:30;;;;;;;3.60;2.20;;;26.80;99.90;;;;;;4917228;29;20230;-75
2022/06/11 08:00:58;;;;;;;4.57;2.38;;;26.60;99.90;;;;;;4915770;29;20219;-75
2022/06/11 08:03:27;;;;;;;3.97;2.30;;;26.00;99.90;;;;;;4923191;29;20572;-74
2022/06/11 08:05:55;;;;;;;4.65;2.17;;;25.50;99.90;;;;;;4917659;29;20595;-75
2022/06/11 08:08:22;;;;;;;4.68;3.17;;;25.60;99.90;;;;;;4915183;29;20206;-75
2022/06/11 08:10:52;;;;;;;3.78;2.53;;;25.70;99.90;;;;;;4925069;29;20310;-75
2022/06/11 08:13:19;;;;;;;5.28;2.40;;;25.80;99.90;;;;;;4925949;29;20219;-75
2022/06/11 08:15:48;;;;;;;5.10;2.50;;;25.90;99.90;;;;;;4929878;29;20266;-75
2022/06/11 08:18:16;;;;;;;6.90;2.53;;;26.20;99.90;;;;;;4926234;29;20246;-74
2022/06/11 08:20:43;;;;;;;3.58;1.95;;;26.10;99.90;;;;;;4926436;29;20219;-75
2022/06/11 08:23:10;;;;;;;5.88;2.00;;;26.00;99.90;;;;;;4924449;29;20214;-75
2022/06/11 08:25:38;;;;;;;4.22;1.95;;;26.00;99.90;;;;;;4914000;29;20199;-76
2022/06/11 08:28:06;;;;;;;2.88;1.90;;;26.00;99.90;;;;;;4932911;28;20206;-75
2022/06/11 08:30:34;;;;;;;2.97;1.45;;;26.10;99.90;;;;;;4929723;29;20227;-75
2022/06/11 08:33:01;;;;;;;1.92;1.20;;;26.10;99.90;;;;;;4934157;29;20214;-75
2022/06/11 08:35:30;;;;;;;3.28;1.60;;;26.30;99.90;;;;;;4931427;29;20766;-75
2022/06/11 08:37:57;;;;;;;4.10;1.70;;;26.50;99.90;;;;;;4939047;29;20230;-75
2022/06/11 08:40:26;;;;;;;2.25;1.45;;;26.60;99.90;;;;;;4936969;28;20222;-75
2022/06/11 08:43:11;;;;;;;2.13;1.40;;;26.80;99.90;;;;;;4929618;29;20472;-73
2022/06/11 08:45:43;;;;;;;2.00;1.10;;;27.00;99.90;;;;;;4940418;29;20237;-75
2022/06/11 08:48:22;;;;;;;1.00;0.80;;;27.10;99.90;;;;;;4939785;29;20195;-75
2022/06/11 08:51:02;;;;;;;1.00;0.90;;;27.10;99.90;;;;;;4937897;28;20223;-75
2022/06/11 08:53:32;;;;;;;1.80;1.00;;;26.80;99.90;;;;;;4934763;29;20226;-76
2022/06/11 08:55:59;;;;;;;0.90;0.90;;;26.50;99.90;;;;;;4943218;29;20222;-75
2022/06/11 08:58:56;;;;;;;2.53;1.30;;;26.40;99.90;;;;;;4934345;28;20206;-75
2022/06/11 09:01:39;;;;;;;1.98;1.42;;;26.50;99.90;;;;;;4927099;29;20639;-76
2022/06/11 09:04:26;;;;;;;2.85;1.42;;;26.50;99.90;;;;;;4946816;29;20207;-75
2022/06/11 09:06:59;;;;;;;2.17;1.52;;;26.60;99.90;;;;;;4932083;29;20207;-75
2022/06/11 09:09:32;;;;;;;2.70;1.42;;;26.90;99.90;;;;;;4929524;29;20205;-75
2022/06/11 09:12:40;;;;;;;6.57;2.88;;;27.10;99.90;;;;;;4940565;28;20716;-77
2022/06/11 09:15:27;;;;;;;3.53;1.58;;;27.30;99.90;;;;;;4929668;29;20203;-75
2022/06/11 09:18:16;;;;;;;1.77;1.30;;;27.30;99.90;;;;;;4930279;29;20263;-75
2022/06/11 09:21:01;;;;;;;2.00;1.30;;;26.80;99.90;;;;;;4939520;29;20223;-77
2022/06/11 09:23:39;;;;;;;1.83;1.20;;;26.90;99.90;;;;;;4932028;29;20210;-77
2022/06/11 09:26:28;;;;;;;3.05;1.25;;;27.20;99.90;;;;;;4933750;29;20678;-76
2022/06/11 09:29:16;;;;;;;2.58;1.10;;;27.50;99.90;;;;;;4924409;29;20580;-74
2022/06/11 09:31:47;;;;;;;2.10;1.30;;;27.70;99.90;;;;;;4928550;29;20570;-75
2022/06/11 09:34:21;;;;;;;1.92;1.17;;;28.00;99.90;;;;;;4931728;29;20266;-77
2022/06/11 09:37:04;;;;;;;3.13;1.30;;;28.20;99.90;;;;;;4926927;29;20251;-75
2022/06/11 09:39:43;;;;;;;2.92;1.30;;;27.90;99.90;;;;;;4933938;29;20202;-76
2022/06/11 09:42:46;;;;;;;3.03;1.30;;;27.80;99.90;;;;;;4933385;29;20239;-75
2022/06/11 09:45:36;;;;;;;2.58;1.30;;;27.70;99.90;;;;;;4925500;29;20201;-77
2022/06/11 09:48:24;;;;;;;3.40;1.30;;;27.50;99.90;;;;;;4929265;29;20191;-75
2022/06/11 09:50:57;;;;;;;5.00;1.20;;;27.50;99.90;;;;;;4937164;29;20241;-75
2022/06/11 09:53:38;;;;;;;2.78;1.40;;;27.60;99.90;;;;;;4929996;29;20713;-75
2022/06/11 09:56:37;;;;;;;3.05;1.75;;;27.80;99.90;;;;;;4931158;29;20202;-76
2022/06/11 09:59:53;;;;;;;2.05;1.05;;;28.00;99.90;;;;;;4930478;29;20686;-74
2022/06/11 10:02:45;;;;;;;3.80;1.70;;;28.20;99.90;;;;;;4931683;29;20246;-76
2022/06/11 10:05:21;;;;;;;2.35;1.20;;;28.30;99.90;;;;;;4931276;29;20203;-75
2022/06/11 10:07:55;;;;;;;2.85;1.20;;;28.10;99.90;;;;;;4935285;29;20209;-76
2022/06/11 10:10:26;;;;;;;3.17;1.40;;;28.10;99.90;;;;;;4924977;29;20655;-75
2022/06/11 10:13:10;;;;;;;2.63;1.00;;;28.20;99.90;;;;;;4933955;29;20226;-75
2022/06/11 10:15:39;;;;;;;4.07;1.25;;;28.50;99.90;;;;;;4929695;29;20322;-77
2022/06/11 10:18:17;;;;;;;2.95;1.45;;;28.60;99.90;;;;;;4932136;29;20243;-75
2022/06/11 10:20:48;;;;;;;1.80;1.10;;;28.60;99.90;;;;;;4924500;29;20423;-75
2022/06/11 10:23:33;;;;;;;1.35;1.10;;;28.70;99.90;;;;;;4928589;29;20218;-76
2022/06/11 10:26:23;;;;;;;3.25;1.40;;;28.70;99.90;;;;;;4931173;29;20202;-76
2022/06/11 10:29:06;;;;;;;2.83;1.30;;;28.80;99.90;;;;;;4930458;29;20206;-75
2022/06/11 10:31:53;;;;;;;1.33;1.20;;;28.70;99.90;;;;;;4927342;29;20569;-75
2022/06/11 10:34:25;;;;;;;3.17;1.20;;;29.00;99.90;;;;;;4927607;29;20218;-75
2022/06/11 10:37:03;;;;;;;3.55;1.23;;;28.60;99.90;;;;;;4932470;29;20210;-75
2022/06/11 10:39:36;;;;;;;1.70;1.08;;;28.60;99.90;;;;;;4927465;29;20648;-74
2022/06/11 10:42:39;;;;;;;2.33;1.10;;;28.70;99.90;;;;;;4929554;29;20222;-76
2022/06/11 10:45:13;;;;;;;3.65;0.93;;;28.80;99.90;;;;;;4923701;29;20254;-76
2022/06/11 10:47:50;;;;;;;2.28;1.20;;;29.00;99.90;;;;;;4925351;29;20202;-77
2022/06/11 10:50:22;;;;;;;3.30;1.25;;;29.00;99.90;;;;;;4928629;29;20246;-75
2022/06/11 10:52:59;;;;;;;1.48;1.02;;;29.20;99.90;;;;;;4926565;29;20269;-76
2022/06/11 10:55:32;;;;;;;1.95;1.20;;;29.60;99.90;;;;;;4921370;29;20626;-75
2022/06/11 10:58:10;;;;;;;3.08;1.40;;;29.60;99.90;;;;;;4929905;29;20190;-74
2022/06/11 11:01:03;;;;;;;1.98;1.10;;;29.60;99.90;;;;;;4931681;29;20730;-76
2022/06/11 11:03:41;;;;;;;1.15;1.00;;;29.30;99.90;;;;;;4927614;29;20261;-76
2022/06/11 11:06:15;;;;;;;2.50;1.08;;;28.80;99.90;;;;;;4925668;29;20679;-76
2022/06/11 11:08:53;;;;;;;2.65;1.10;;;28.60;99.90;;;;;;4932140;29;20682;-76
2022/06/11 11:11:20;;;;;;;3.15;1.20;;;28.60;99.90;;;;;;4927550;29;20248;-74
2022/06/11 11:13:48;;;;;;;2.58;1.05;;;28.70;99.90;;;;;;4924630;29;20282;-75
2022/06/11 11:16:22;;;;;;;2.90;1.13;;;28.60;99.90;;;;;;4928759;29;20205;-77
2022/06/11 11:19:16;;;;;;;2.45;0.90;;;28.10;99.90;;;;;;4927531;29;20277;-76
2022/06/11 11:21:49;;;;;;;2.20;1.10;;;28.10;99.90;;;;;;4924772;29;20219;-75
2022/06/11 11:24:22;;;;;;;1.80;1.10;;;28.30;99.90;;;;;;4927789;29;20203;-76
2022/06/11 11:27:06;;;;;;;1.70;1.15;;;28.60;99.90;;;;;;4929985;29;20679;-75
2022/06/11 11:29:38;;;;;;;2.58;1.25;;;28.90;99.90;;;;;;4924689;29;20647;-76
2022/06/11 11:32:26;;;;;;;1.92;0.90;;;29.50;99.90;;;;;;4926168;29;20620;-76
2022/06/11 11:34:53;;;;;;;1.70;1.10;;;29.50;99.90;;;;;;4924314;29;20226;-76
2022/06/11 11:37:22;;;;;;;3.58;0.93;;;29.90;99.90;;;;;;4924885;29;20199;-75
2022/06/11 11:39:53;;;;;;;2.10;1.20;;;30.20;99.90;;;;;;4946095;28;20572;-76
2022/06/11 11:42:25;;;;;;;2.22;1.65;;;30.10;99.90;;;;;;4923132;29;20218;-77
2022/06/11 11:44:57;;;;;;;2.90;1.20;;;30.20;99.90;;;;;;4921318;29;20698;-76
2022/06/11 11:47:37;;;;;;;3.42;2.75;;;30.50;99.90;;;;;;4914636;29;20204;-76
2022/06/11 11:50:13;;;;;;;2.25;1.52;;;30.30;99.90;;;;;;4920069;29;20207;-73
2022/06/11 11:52:52;;;;;;;1.95;1.00;;;30.70;99.90;;;;;;4920646;29;20289;-77
2022/06/11 11:55:29;;;;;;;1.73;1.10;;;30.60;99.90;;;;;;4917953;29;20195;-76
2022/06/11 11:58:06;;;;;;;3.90;1.45;;;29.90;99.90;;;;;;4919579;29;20210;-76
2022/06/11 12:00:54;;;;;;;3.47;1.40;;;30.20;99.90;;;;;;4927127;29;20221;-76
2022/06/11 12:03:36;;;;;;;1.45;1.30;;;30.20;99.90;;;;;;4924514;28;20225;-76
2022/06/11 12:06:05;;;;;;;2.33;1.02;;;30.50;99.90;;;;;;4917935;29;20207;-75
2022/06/11 12:08:39;;;;;;;1.90;1.27;;;30.20;99.90;;;;;;4924218;29;20203;-76
2022/06/11 12:11:06;;;;;;;2.58;1.27;;;29.90;99.90;;;;;;4920219;29;20223;-76
2022/06/11 12:13:48;;;;;;;2.45;1.38;;;30.00;99.90;;;;;;4914242;29;20267;-76
2022/06/11 12:16:21;;;;;;;3.25;1.45;;;29.90;99.90;;;;;;4920094;29;20583;-76
2022/06/11 12:18:57;;;;;;;2.67;1.13;;;29.50;99.90;;;;;;4918650;29;20196;-76
2022/06/11 12:21:28;;;;;;;1.40;1.15;;;29.20;99.90;;;;;;4915171;29;20222;-75
2022/06/11 12:24:07;;;;;;;3.20;1.20;;;29.40;99.90;;;;;;4916704;29;20239;-76
2022/06/11 12:26:40;;;;;;;3.08;1.10;;;29.20;99.90;;;;;;4917352;29;20202;-75
2022/06/11 12:29:27;;;;;;;1.10;0.95;;;29.50;99.90;;;;;;4921780;29;20671;-76
2022/06/11 12:31:59;;;;;;;4.22;1.30;;;29.70;99.90;;;;;;4913738;29;20229;-76
2022/06/11 12:34:29;;;;;;;3.30;1.27;;;29.90;99.90;;;;;;4920015;29;20230;-76
2022/06/11 12:37:20;;;;;;;2.42;1.17;;;30.20;99.90;;;;;;4917829;29;20211;-76
2022/06/11 12:40:19;;;;;;;2.15;1.20;;;30.50;99.90;;;;;;4908616;29;20199;-76
2022/06/11 12:43:20;;;;;;;4.63;1.27;;;30.80;99.90;;;;;;4923206;29;20242;-76
2022/06/11 12:46:04;;;;;;;1.88;1.17;;;30.70;99.90;;;;;;4916244;29;20639;-75
2022/06/11 12:48:43;;;;;;;1.27;1.10;;;30.60;99.90;;;;;;4916789;29;20215;-75
2022/06/11 12:51:14;;;;;;;2.42;1.10;;;30.50;99.90;;;;;;4921050;29;20715;-76
2022/06/11 12:53:50;;;;;;;3.10;1.13;;;30.60;99.90;;;;;;4919370;29;20222;-75
2022/06/11 12:56:19;;;;;;;1.58;1.10;;;31.00;99.90;;;;;;4919153;29;20195;-76
2022/06/11 12:59:02;;;;;;;1.63;1.15;;;31.20;99.90;;;;;;4919029;29;20715;-77
2022/06/11 13:01:37;;;;;;;3.53;1.35;;;31.30;99.90;;;;;;4917382;29;20714;-77
2022/06/11 13:04:16;;;;;;;1.70;1.20;;;31.40;99.90;;;;;;4923211;29;20287;-75
2022/06/11 13:07:01;;;;;;;2.80;1.00;;;31.40;99.90;;;;;;4914665;29;20203;-77
2022/06/11 13:09:49;;;;;;;1.15;1.05;;;31.40;99.90;;;;;;4914281;29;20199;-76
2022/06/11 13:12:31;;;;;;;1.75;1.00;;;31.50;99.90;;;;;;4913834;29;20268;-77
2022/06/11 13:15:23;;;;;;;1.73;1.00;;;31.50;99.90;;;;;;4926965;28;20743;-77
2022/06/11 13:17:58;;;;;;;1.55;1.10;;;31.40;99.90;;;;;;4920448;29;20207;-78
2022/06/11 13:20:50;;;;;;;2.58;1.20;;;31.40;99.90;;;;;;4922893;29;20571;-76
2022/06/11 13:23:55;;;;;;;2.42;1.35;;;31.20;99.90;;;;;;4923891;29;20238;-75